Time;durP1;ratioP1;P1;durP2;ratioP2;P2;SDS_P1;SDS_P2;PMS_P1;PMS_P2;Temp;Humidity;BMP_temperature;BMP_pressure;BME280_temperature;BME280_humidity;BME280_pressure;Samples;Min_cycle;Max_cycle;Signal;HPM_P1;HPM_P2
2022/04/19 00:01:16;;;;;;;15.80;7.40;;;;;;;0.35;100.00;101186.41;4988201;28;20083;-82
2022/04/19 00:03:44;;;;;;;15.07;5.90;;;;;;;0.57;100.00;101199.06;4979205;28;20045;-86
2022/04/19 00:06:21;;;;;;;9.02;3.78;;;;;;;0.69;100.00;101202.69;4974742;28;20041;-83
2022/04/19 00:08:57;;;;;;;11.95;3.92;;;;;;;0.33;100.00;101152.09;4988471;28;20045;-83
2022/04/19 00:11:23;;;;;;;10.00;4.03;;;;;;;0.51;100.00;101202.13;4987310;28;20026;-83
2022/04/19 00:13:48;;;;;;;8.63;3.13;;;;;;;0.36;100.00;101188.94;4976508;28;20041;-84
2022/04/19 00:16:14;;;;;;;7.07;2.58;;;;;;;0.40;100.00;101208.97;5006101;28;20157;-81
2022/04/19 00:18:40;;;;;;;5.40;2.88;;;;;;;0.27;100.00;101186.91;4969849;28;20037;-84
2022/04/19 00:21:06;;;;;;;10.65;3.17;;;;;;;0.29;100.00;101214.09;4974052;28;20040;-84
2022/04/19 00:23:31;;;;;;;13.18;3.92;;;;;;;0.14;100.00;101215.91;4969617;28;20112;-84
2022/04/19 00:25:59;;;;;;;9.95;2.95;;;;;;;0.02;100.00;101197.34;4992438;28;20061;-83
2022/04/19 00:28:26;;;;;;;6.47;2.90;;;;;;;0.13;100.00;101213.34;4957761;28;20038;-83
2022/04/19 00:30:52;;;;;;;9.57;2.83;;;;;;;0.12;100.00;101203.75;4974807;28;20034;-83
2022/04/19 00:33:17;;;;;;;8.85;3.60;;;;;;;0.06;100.00;101210.28;4964208;28;20352;-86
2022/04/19 00:35:43;;;;;;;7.00;3.15;;;;;;;0.03;100.00;101210.47;4988149;28;20060;-83
2022/04/19 00:38:09;;;;;;;8.68;3.28;;;;;;;-0.11;100.00;101197.25;5002386;28;20037;-87
2022/04/19 00:40:35;;;;;;;6.95;2.85;;;;;;;-0.14;100.00;101202.72;4994810;28;20049;-82
2022/04/19 00:43:01;;;;;;;9.10;2.47;;;;;;;-0.05;100.00;101205.66;4988056;28;20029;-80
2022/04/19 00:45:27;;;;;;;6.03;2.70;;;;;;;0.06;100.00;101201.50;4990423;28;20511;-85
2022/04/19 00:47:54;;;;;;;5.28;2.78;;;;;;;0.11;100.00;101204.69;5005209;28;20041;-82
2022/04/19 00:50:20;;;;;;;7.00;3.75;;;;;;;0.08;100.00;101210.16;4991198;28;20120;-85
2022/04/19 00:52:46;;;;;;;7.88;2.90;;;;;;;-0.18;100.00;101196.81;4960231;28;20133;-82
2022/04/19 00:55:12;;;;;;;5.55;2.20;;;;;;;-0.22;100.00;101208.50;4973420;28;20048;-82
2022/04/19 00:57:39;;;;;;;4.15;2.08;;;;;;;-0.39;100.00;101195.50;4964146;28;20038;-87
2022/04/19 01:00:08;;;;;;;4.63;2.13;;;;;;;-0.32;100.00;101216.16;4956701;28;20041;-83
2022/04/19 01:02:36;;;;;;;6.10;2.13;;;;;;;-0.38;100.00;101219.16;4974130;28;20127;-86
2022/04/19 01:05:03;;;;;;;8.20;2.03;;;;;;;-0.35;100.00;101220.78;5001977;28;20026;-81
2022/04/19 01:07:29;;;;;;;5.60;1.95;;;;;;;-0.37;100.00;101220.00;4992405;28;20036;-81
2022/04/19 01:09:54;;;;;;;4.20;1.98;;;;;;;-0.45;100.00;101210.78;4974206;28;20133;-84
2022/04/19 01:15:06;;;;;;;5.20;2.40;;;;;;;-0.53;100.00;101220.97;4994114;28;20045;-83
2022/04/19 01:17:34;;;;;;;6.10;3.10;;;;;;;-0.63;100.00;101229.53;4986877;28;20034;-85
2022/04/19 01:20:01;;;;;;;13.93;3.42;;;;;;;-0.67;100.00;101234.13;4985640;28;20784;-85
2022/04/19 01:22:26;;;;;;;6.18;2.65;;;;;;;-0.59;100.00;101226.59;4984725;28;20423;-86
2022/04/19 01:24:52;;;;;;;6.38;2.83;;;;;;;-0.47;100.00;101231.16;4969056;28;20046;-83
2022/04/19 01:27:18;;;;;;;5.18;2.50;;;;;;;-0.43;100.00;101231.81;4971916;28;20483;-80
2022/04/19 01:29:45;;;;;;;13.25;3.53;;;;;;;-0.60;100.00;101224.91;4974935;28;20391;-83
2022/04/19 01:32:13;;;;;;;5.38;1.85;;;;;;;-0.78;100.00;101234.78;4974210;28;20037;-83
2022/04/19 01:34:39;;;;;;;5.88;3.03;;;;;;;-0.88;100.00;101239.75;4970287;28;20034;-83
2022/04/19 01:37:06;;;;;;;7.75;2.78;;;;;;;-0.92;100.00;101227.69;5005997;28;20085;-85
2022/04/19 01:42:16;;;;;;;5.85;2.15;;;;;;;-0.69;100.00;101231.59;5000742;28;20022;-84
2022/04/19 01:44:42;;;;;;;4.22;2.03;;;;;;;-0.58;100.00;101233.59;4956651;28;20056;-86
2022/04/19 01:47:07;;;;;;;1.88;1.27;;;;;;;-0.51;100.00;101245.47;5002599;28;20030;-85
2022/04/19 01:49:34;;;;;;;6.68;1.85;;;;;;;-0.68;100.00;101240.38;4990215;28;20034;-80
2022/04/19 01:52:02;;;;;;;3.95;1.90;;;;;;;-0.76;100.00;101246.09;5004006;28;20053;-82
2022/04/19 01:54:29;;;;;;;2.63;1.40;;;;;;;-0.84;100.00;101250.16;5007395;28;21497;-80
2022/04/19 01:56:55;;;;;;;5.03;2.10;;;;;;;-0.85;100.00;101251.91;4977194;28;20046;-86
2022/04/19 01:59:21;;;;;;;3.92;1.90;;;;;;;-0.81;100.00;101256.09;4988509;28;20403;-81
2022/04/19 02:01:48;;;;;;;4.18;1.90;;;;;;;-0.89;100.00;101250.41;5005860;28;20036;-83
2022/04/19 02:04:15;;;;;;;5.40;1.95;;;;;;;-1.01;100.00;101251.97;5005343;28;20383;-82
2022/04/19 02:06:41;;;;;;;5.78;3.10;;;;;;;-1.05;100.00;101260.16;4955890;28;20050;-86
2022/04/19 02:09:07;;;;;;;3.88;2.15;;;;;;;-1.19;100.00;101255.66;4979430;28;20095;-82
2022/04/19 02:11:32;;;;;;;3.78;1.55;;;;;;;-1.16;100.00;101261.63;5003837;28;20041;-84
2022/04/19 02:13:59;;;;;;;3.17;1.55;;;;;;;-1.17;100.00;101259.91;4974268;28;20192;-82
2022/04/19 02:16:24;;;;;;;4.35;2.10;;;;;;;-1.19;100.00;101263.56;4957956;28;20026;-81
2022/04/19 02:18:50;;;;;;;4.03;2.28;;;;;;;-1.11;100.00;101277.22;5005094;28;20041;-84
2022/04/19 02:21:15;;;;;;;2.65;1.60;;;;;;;-1.12;100.00;101270.22;4983347;28;20120;-85
2022/04/19 02:23:41;;;;;;;3.70;1.52;;;;;;;-1.19;100.00;101268.84;4953664;28;20543;-83
2022/04/19 02:26:07;;;;;;;3.55;1.55;;;;;;;-1.25;100.00;101266.56;4971633;28;20038;-84
2022/04/19 02:28:34;;;;;;;3.75;1.90;;;;;;;-1.25;100.00;101275.34;4986640;28;20034;-84
2022/04/19 02:30:59;;;;;;;4.70;1.38;;;;;;;-1.42;100.00;101242.00;4990596;28;20034;-82
2022/04/19 02:33:25;;;;;;;3.67;1.70;;;;;;;-1.20;100.00;101265.38;4959261;28;20686;-83
2022/04/19 02:35:52;;;;;;;6.72;1.95;;;;;;;-1.12;100.00;101278.13;5008466;28;20026;-83
2022/04/19 02:38:18;;;;;;;4.35;2.20;;;;;;;-1.15;100.00;101273.88;4991907;28;20092;-83
2022/04/19 02:40:44;;;;;;;3.75;2.58;;;;;;;-1.19;100.00;101282.03;4988981;28;20978;-82
2022/04/19 02:43:09;;;;;;;4.65;3.08;;;;;;;-1.26;100.00;101283.34;4985317;28;20046;-87
2022/04/19 02:45:35;;;;;;;5.75;1.90;;;;;;;-1.22;100.00;101279.59;4972366;28;20038;-81
2022/04/19 02:48:06;;;;;;;2.97;1.40;;;;;;;-1.15;100.00;101281.78;4958072;28;20438;-80
2022/04/19 02:50:43;;;;;;;2.72;1.50;;;;;;;-1.18;100.00;101294.31;5004444;28;20148;-82
2022/04/19 02:53:09;;;;;;;3.80;1.65;;;;;;;-1.28;100.00;101295.78;4966966;28;20048;-81
2022/04/19 02:55:34;;;;;;;2.50;1.40;;;;;;;-1.43;100.00;101289.56;4990716;28;20030;-83
2022/04/19 02:58:00;;;;;;;5.05;1.63;;;;;;;-1.57;100.00;101303.50;4967250;28;20492;-82
2022/04/19 03:00:26;;;;;;;2.42;1.50;;;;;;;-1.63;100.00;101303.88;4967444;28;20092;-82
2022/04/19 03:02:52;;;;;;;2.53;1.50;;;;;;;-1.65;100.00;101303.09;4975334;28;20483;-85
2022/04/19 03:05:18;;;;;;;3.70;1.35;;;;;;;-1.69;100.00;101307.69;4993708;28;20495;-82
2022/04/19 03:07:44;;;;;;;8.70;1.90;;;;;;;-1.77;100.00;101307.25;4992024;28;20746;-81
2022/04/19 03:10:10;;;;;;;5.32;1.80;;;;;;;-1.82;100.00;101296.09;5005435;28;20037;-79
2022/04/19 03:12:36;;;;;;;2.33;1.40;;;;;;;-1.78;100.00;101295.00;5007811;28;21753;-81
2022/04/19 03:15:04;;;;;;;4.50;1.67;;;;;;;-1.74;100.00;101299.19;4987989;28;20121;-82
2022/04/19 03:17:30;;;;;;;1.88;1.40;;;;;;;-1.85;100.00;101286.59;5006108;28;20044;-81
2022/04/19 03:19:55;;;;;;;4.20;1.73;;;;;;;-1.77;100.00;101308.09;4980544;28;20409;-81
2022/04/19 03:22:21;;;;;;;2.20;1.20;;;;;;;-1.77;100.00;101302.81;4990945;28;20032;-82
2022/04/19 03:27:43;;;;;;;3.95;1.35;;;;;;;-1.79;100.00;101307.31;4992440;28;20037;-82
2022/04/19 03:30:12;;;;;;;2.88;1.50;;;;;;;-1.82;100.00;101291.69;4977038;28;20036;-79
2022/04/19 03:32:37;;;;;;;4.07;1.52;;;;;;;-1.70;100.00;101300.69;4974694;28;20029;-81
2022/04/19 03:35:03;;;;;;;3.63;1.40;;;;;;;-1.62;100.00;101309.03;4988070;28;20041;-81
2022/04/19 03:37:30;;;;;;;3.20;1.40;;;;;;;-1.78;100.00;101289.72;5005090;28;20037;-84
2022/04/19 03:39:56;;;;;;;2.50;1.52;;;;;;;-1.70;100.00;101313.03;4968704;28;20123;-84
2022/04/19 03:42:24;;;;;;;2.75;1.35;;;;;;;-1.74;100.00;101303.59;4999715;28;20854;-85
2022/04/19 03:44:49;;;;;;;3.80;1.77;;;;;;;-1.75;100.00;101315.06;5004727;28;20513;-82
2022/04/19 03:47:17;;;;;;;2.53;1.50;;;;;;;-1.79;100.00;101317.88;5010269;28;20037;-80
2022/04/19 03:49:44;;;;;;;3.00;1.45;;;;;;;-1.82;100.00;101312.78;4951667;28;20041;-82
2022/04/19 03:52:10;;;;;;;2.63;1.30;;;;;;;-1.90;100.00;101307.06;4990734;28;20065;-82
2022/04/19 03:54:36;;;;;;;1.70;1.20;;;;;;;-1.87;100.00;101330.63;4997624;28;20038;-81
2022/04/19 03:57:10;;;;;;;1.77;1.40;;;;;;;-1.90;100.00;101322.03;4960126;28;20107;-84
2022/04/19 03:59:41;;;;;;;4.22;1.30;;;;;;;-1.99;100.00;101307.53;4974971;28;20076;-82
2022/04/19 04:02:07;;;;;;;1.75;1.40;;;;;;;-1.93;100.00;101325.69;4977344;28;20539;-83
2022/04/19 04:04:35;;;;;;;2.05;1.42;;;;;;;-2.00;100.00;101325.13;4974586;28;20448;-89
2022/04/19 04:07:02;;;;;;;2.15;1.27;;;;;;;-2.12;100.00;101335.47;4993000;28;20038;-82
2022/04/19 04:09:35;;;;;;;4.03;1.50;;;;;;;-2.10;100.00;101339.72;5010392;28;20032;-83
2022/04/19 04:12:06;;;;;;;5.20;1.57;;;;;;;-2.08;100.00;101345.78;4984807;28;20120;-83
2022/04/19 04:14:32;;;;;;;3.35;1.55;;;;;;;-2.05;100.00;101342.13;4992343;28;20044;-85
2022/04/19 04:16:58;;;;;;;1.92;1.52;;;;;;;-2.06;100.00;101341.28;4961337;28;20116;-83
2022/04/19 04:19:24;;;;;;;5.63;1.27;;;;;;;-2.09;100.00;101328.28;4969807;28;20459;-85
2022/04/19 04:21:49;;;;;;;2.92;1.42;;;;;;;-2.15;100.00;101335.63;4989062;28;20035;-83
2022/04/19 04:24:15;;;;;;;1.83;1.08;;;;;;;-2.20;100.00;101349.03;4991229;28;20570;-81
2022/04/19 04:26:41;;;;;;;2.78;1.42;;;;;;;-2.36;100.00;101319.16;4948443;28;20041;-81
2022/04/19 04:29:06;;;;;;;4.95;1.80;;;;;;;-2.27;100.00;101331.88;4969708;28;20030;-82
2022/04/19 04:31:32;;;;;;;3.20;1.42;;;;;;;-2.12;100.00;101346.00;4982824;28;20038;-81
2022/04/19 04:33:58;;;;;;;2.60;1.27;;;;;;;-2.18;100.00;101331.38;4981570;28;20037;-80
2022/04/19 04:36:23;;;;;;;2.28;1.58;;;;;;;-2.11;100.00;101345.94;5002237;28;20044;-81
2022/04/19 04:38:49;;;;;;;4.13;1.38;;;;;;;-2.23;100.00;101344.78;4982806;28;20034;-83
2022/04/19 04:41:15;;;;;;;3.03;1.30;;;;;;;-2.25;100.00;101349.28;4966600;28;20041;-82
2022/04/19 04:43:40;;;;;;;2.92;1.75;;;;;;;-2.23;100.00;101351.84;4966741;28;20034;-83
2022/04/19 04:51:35;;;;;;;7.35;2.90;;;;;;;-2.21;100.00;101347.34;4993983;28;20037;-80
2022/04/19 04:54:01;;;;;;;4.85;2.03;;;;;;;-2.30;100.00;101348.69;4983308;28;20033;-84
2022/04/19 04:56:27;;;;;;;6.03;2.65;;;;;;;-2.45;100.00;101325.75;4964514;28;20049;-80
2022/04/19 04:58:52;;;;;;;12.45;2.92;;;;;;;-2.25;100.00;101357.19;4991822;28;20046;-82
2022/04/19 05:01:18;;;;;;;5.28;1.95;;;;;;;-2.30;100.00;101343.41;4991478;28;20124;-80
2022/04/19 05:03:43;;;;;;;4.82;2.22;;;;;;;-2.28;100.00;101348.59;4991225;28;20033;-79
2022/04/19 05:06:09;;;;;;;5.15;1.67;;;;;;;-2.24;100.00;101371.22;5006491;28;20531;-82
2022/04/19 05:08:34;;;;;;;3.45;1.73;;;;;;;-2.33;100.00;101358.50;4998642;28;20029;-81
2022/04/19 05:11:00;;;;;;;4.43;1.50;;;;;;;-2.29;100.00;101371.44;4993151;28;20109;-78
2022/04/19 05:13:26;;;;;;;5.20;2.05;;;;;;;-2.26;100.00;101366.00;5024035;28;20030;-81
2022/04/19 05:15:51;;;;;;;4.78;1.80;;;;;;;-2.28;100.00;101375.75;4998870;28;20048;-81
2022/04/19 05:18:17;;;;;;;5.00;1.90;;;;;;;-2.37;100.00;101370.97;4990545;28;20031;-82
2022/04/19 05:20:43;;;;;;;4.28;1.55;;;;;;;-2.35;100.00;101377.03;4993035;28;20045;-81
2022/04/19 05:23:09;;;;;;;5.97;1.65;;;;;;;-2.36;100.00;101383.22;4960397;28;20490;-80
2022/04/19 05:25:34;;;;;;;5.55;1.58;;;;;;;-2.33;100.00;101390.97;4960400;28;20422;-79
2022/04/19 05:28:00;;;;;;;4.72;1.88;;;;;;;-2.31;100.00;101397.00;4960163;28;20042;-85
2022/04/19 05:30:25;;;;;;;5.18;1.42;;;;;;;-2.23;100.00;101389.56;4990117;28;20037;-81
2022/04/19 05:32:53;;;;;;;5.40;1.55;;;;;;;-2.15;100.00;101404.97;4955010;28;20034;-81
2022/04/19 05:35:19;;;;;;;4.30;1.73;;;;;;;-2.08;100.00;101390.56;4990002;28;20042;-79
2022/04/19 05:37:46;;;;;;;5.63;2.28;;;;;;;-2.14;100.00;101390.91;4964374;28;20060;-82
2022/04/19 05:40:12;;;;;;;4.45;1.92;;;;;;;-2.15;100.00;101388.31;4991823;28;20459;-80
2022/04/19 05:42:37;;;;;;;7.43;2.35;;;;;;;-2.08;100.00;101400.25;4993942;28;20102;-80
2022/04/19 05:45:03;;;;;;;5.78;3.28;;;;;;;-2.01;100.00;101393.75;4983794;28;20129;-81
2022/04/19 05:47:29;;;;;;;7.68;4.20;;;;;;;-1.89;100.00;101395.72;5002702;28;20034;-84
2022/04/19 05:49:54;;;;;;;5.78;2.60;;;;;;;-1.71;100.00;101407.09;4959038;28;20038;-84
2022/04/19 05:52:20;;;;;;;4.47;2.13;;;;;;;-1.62;100.00;101413.66;4993068;28;20211;-84
2022/04/19 05:54:45;;;;;;;8.40;2.25;;;;;;;-1.65;100.00;101414.69;4975696;28;20057;-81
2022/04/19 05:57:11;;;;;;;6.60;2.58;;;;;;;-1.60;100.00;101406.53;4957370;28;20044;-84
2022/04/19 05:59:37;;;;;;;4.32;2.20;;;;;;;-1.49;100.00;101419.16;4958429;28;20511;-79
2022/04/19 06:04:53;;;;;;;2.45;1.48;;;;;;;-1.40;100.00;101419.50;4984481;28;20139;-85
2022/04/19 06:07:23;;;;;;;1.77;1.33;;;;;;;-1.24;100.00;101418.69;5002600;28;20030;-81
2022/04/19 06:09:54;;;;;;;3.35;1.77;;;;;;;-1.18;100.00;101413.06;4992857;28;20108;-79
2022/04/19 06:12:19;;;;;;;3.30;1.85;;;;;;;-1.09;100.00;101420.47;4973561;28;20494;-86
2022/04/19 06:14:45;;;;;;;7.05;1.95;;;;;;;-1.04;100.00;101421.06;4986204;28;20046;-80
2022/04/19 06:17:16;;;;;;;5.53;1.90;;;;;;;-1.02;100.00;101410.44;5022212;28;20038;-80
2022/04/19 06:19:43;;;;;;;4.75;1.98;;;;;;;-0.72;100.00;101421.06;5015005;28;20056;-87
2022/04/19 06:22:08;;;;;;;6.53;2.00;;;;;;;-0.42;100.00;101412.31;5007617;28;20040;-86
2022/04/19 06:24:34;;;;;;;4.43;1.80;;;;;;;0.07;100.00;101426.13;5008669;28;20042;-87
2022/04/19 06:27:00;;;;;;;9.05;2.25;;;;;;;0.41;100.00;101437.31;5008938;28;20041;-81
2022/04/19 06:30:00;;;;;;;6.32;2.03;;;;;;;0.72;100.00;101438.94;4989647;28;20026;-81
2022/04/19 06:32:26;;;;;;;6.03;2.40;;;;;;;0.96;100.00;101441.00;4957516;28;20033;-81
2022/04/19 06:35:18;;;;;;;4.80;2.30;;;;;;;0.94;100.00;101448.19;5007652;28;20088;-84
2022/04/19 06:37:43;;;;;;;7.00;2.80;;;;;;;1.12;100.00;101447.00;5005014;28;20033;-82
2022/04/19 06:40:11;;;;;;;8.77;1.88;;;;;;;1.34;100.00;101442.97;4977164;28;20044;-80
2022/04/19 06:42:36;;;;;;;5.15;2.03;;;;;;;1.38;100.00;101441.84;4975228;28;20368;-81
2022/04/19 06:45:04;;;;;;;3.53;1.50;;;;;;;1.59;100.00;101456.34;4992841;28;20037;-83
2022/04/19 06:47:29;;;;;;;5.22;2.33;;;;;;;1.73;100.00;101461.56;4991291;28;20040;-82
2022/04/19 06:50:03;;;;;;;4.88;2.08;;;;;;;1.86;100.00;101452.81;4990508;28;20037;-84
2022/04/19 06:52:29;;;;;;;7.05;2.20;;;;;;;2.31;100.00;101469.22;5007240;28;20442;-80
2022/04/19 06:54:55;;;;;;;9.48;2.47;;;;;;;2.71;100.00;101477.09;4960176;28;20045;-84
2022/04/19 06:57:21;;;;;;;6.63;2.90;;;;;;;3.11;100.00;101471.59;5010573;28;20048;-83
2022/04/19 06:59:47;;;;;;;6.13;2.45;;;;;;;3.47;100.00;101455.66;4976684;28;20502;-81
2022/04/19 07:02:19;;;;;;;5.32;2.63;;;;;;;3.49;100.00;101413.84;4982433;28;20100;-83
2022/04/19 07:04:48;;;;;;;7.35;2.28;;;;;;;4.06;100.00;101427.34;4963309;28;20038;-83
2022/04/19 07:07:14;;;;;;;8.95;3.10;;;;;;;4.87;100.00;101433.44;4968093;28;20040;-82
2022/04/19 07:09:40;;;;;;;9.98;3.38;;;;;;;6.35;96.87;101452.34;4973020;28;20045;-83
2022/04/19 07:12:08;;;;;;;7.05;3.33;;;;;;;7.61;92.01;101455.47;4977851;28;20057;-82
2022/04/19 07:14:34;;;;;;;6.35;2.92;;;;;;;8.67;89.10;101456.38;4991479;28;20080;-87
2022/04/19 07:16:59;;;;;;;8.75;3.30;;;;;;;9.60;84.50;101475.09;5002844;28;20042;-81
2022/04/19 07:19:25;;;;;;;5.40;2.83;;;;;;;10.39;84.20;101477.00;4985975;28;20038;-85
2022/04/19 07:27:21;;;;;;;6.97;2.97;;;;;;;12.86;74.84;101473.88;5008080;28;20392;-83
2022/04/19 07:29:47;;;;;;;4.13;2.60;;;;;;;13.37;70.77;101483.31;4975973;28;20120;-86
2022/04/19 07:32:13;;;;;;;5.07;2.95;;;;;;;13.79;68.61;101489.34;4994328;28;20156;-87
2022/04/19 07:34:39;;;;;;;7.57;3.60;;;;;;;14.02;67.50;101495.56;5005595;28;20030;-87
2022/04/19 07:37:04;;;;;;;7.05;3.85;;;;;;;14.08;66.16;101491.34;4974488;28;20041;-83
2022/04/19 07:39:30;;;;;;;5.95;3.30;;;;;;;14.16;66.69;101474.19;4995427;28;20025;-84
2022/04/19 07:41:57;;;;;;;4.53;3.20;;;;;;;15.02;65.72;101490.94;4988880;28;20042;-85
2022/04/19 07:44:23;;;;;;;4.00;2.85;;;;;;;15.83;64.09;101476.31;4999083;28;20041;-84
2022/04/19 07:46:50;;;;;;;5.70;3.40;;;;;;;16.83;62.56;101481.75;4985713;28;20042;-84
2022/04/19 07:49:16;;;;;;;6.43;3.30;;;;;;;17.64;63.15;101491.97;4978517;28;20487;-83
2022/04/19 07:51:43;;;;;;;5.85;3.35;;;;;;;16.44;65.05;101496.72;4971562;28;20095;-84
2022/04/19 07:54:11;;;;;;;6.28;3.55;;;;;;;14.66;68.58;101510.59;4976435;28;20387;-86
2022/04/19 07:56:36;;;;;;;9.68;5.05;;;;;;;12.68;77.52;101496.53;5003601;28;20088;-82
2022/04/19 07:59:03;;;;;;;6.85;4.13;;;;;;;11.69;82.06;101505.56;4983877;28;20514;-83
2022/04/19 08:01:28;;;;;;;8.95;4.05;;;;;;;11.13;84.08;101496.28;4977184;28;20034;-84
2022/04/19 08:03:54;;;;;;;16.30;7.85;;;;;;;11.13;85.12;101501.66;4985790;28;20048;-84
2022/04/19 08:06:19;;;;;;;13.45;6.82;;;;;;;11.79;84.44;101498.16;4997829;28;20089;-82
2022/04/19 08:08:45;;;;;;;9.50;4.85;;;;;;;11.17;84.46;101495.81;4993249;28;20506;-83
2022/04/19 08:11:11;;;;;;;5.38;3.28;;;;;;;10.09;87.99;101492.53;4977815;28;20030;-82
2022/04/19 08:13:36;;;;;;;7.63;2.97;;;;;;;9.61;90.16;101509.88;4990255;28;20120;-84
2022/04/19 08:16:02;;;;;;;7.50;3.33;;;;;;;9.72;91.43;101514.19;4996973;28;20053;-82
2022/04/19 08:18:28;;;;;;;8.18;3.40;;;;;;;10.22;90.17;101502.91;4995522;28;20032;-81
2022/04/19 08:20:53;;;;;;;9.18;3.78;;;;;;;10.62;87.09;101506.94;4960194;28;20046;-84
2022/04/19 08:23:19;;;;;;;6.05;2.90;;;;;;;10.27;85.56;101516.75;5004410;28;20625;-84
2022/04/19 08:25:44;;;;;;;7.43;3.03;;;;;;;9.84;87.04;101512.97;4972119;28;20031;-80
2022/04/19 08:28:10;;;;;;;7.43;2.70;;;;;;;12.96;76.79;101507.72;4980967;28;20036;-81
2022/04/19 08:30:38;;;;;;;5.13;2.78;;;;;;;15.33;65.91;101499.69;4963209;28;20037;-81
2022/04/19 08:33:04;;;;;;;7.43;2.30;;;;;;;16.77;61.18;101496.09;4971876;28;20133;-80
2022/04/19 08:35:30;;;;;;;7.68;2.95;;;;;;;17.58;57.26;101486.31;4989217;28;20479;-85
2022/04/19 08:37:56;;;;;;;6.88;2.78;;;;;;;18.31;55.27;101507.41;5013076;28;20026;-80
2022/04/19 08:40:25;;;;;;;4.13;2.38;;;;;;;19.06;52.15;101493.50;4985376;28;20049;-88
2022/04/19 08:42:50;;;;;;;6.93;2.97;;;;;;;17.60;55.05;101475.22;5002494;28;20030;-80
2022/04/19 08:45:16;;;;;;;6.10;2.33;;;;;;;18.76;53.19;101493.13;5012477;28;20033;-79
2022/04/19 08:47:46;;;;;;;6.13;2.60;;;;;;;19.57;51.53;101500.84;4999025;28;20042;-86
2022/04/19 08:50:20;;;;;;;8.60;2.28;;;;;;;18.67;51.61;101489.78;4975306;28;20120;-80
2022/04/19 08:52:46;;;;;;;7.05;3.03;;;;;;;16.85;57.06;101499.53;4984503;28;20320;-80
2022/04/19 08:58:04;;;;;;;5.28;2.53;;;;;;;13.92;71.69;101494.13;4999088;28;20048;-84
2022/04/19 09:00:30;;;;;;;5.03;2.58;;;;;;;13.52;74.55;101499.63;4997757;28;20042;-78
2022/04/19 09:02:59;;;;;;;5.82;2.72;;;;;;;13.73;73.96;101503.56;4994703;28;20038;-78
2022/04/19 09:05:26;;;;;;;7.93;2.85;;;;;;;13.62;74.36;101505.63;4989389;28;20026;-79
2022/04/19 09:07:57;;;;;;;8.15;2.92;;;;;;;13.82;72.37;101494.38;4992380;28;20041;-78
2022/04/19 09:10:33;;;;;;;8.43;2.85;;;;;;;14.34;71.67;101492.78;5012816;28;20040;-81
2022/04/19 09:13:06;;;;;;;10.60;3.75;;;;;;;15.48;68.71;101498.81;4975412;28;20092;-77
2022/04/19 09:15:43;;;;;;;10.85;2.72;;;;;;;18.32;62.11;101487.28;4989452;28;20034;-80
2022/04/19 09:18:29;;;;;;;7.90;2.53;;;;;;;20.03;58.00;101494.34;4978300;28;20120;-77
2022/04/19 09:20:58;;;;;;;6.68;2.25;;;;;;;19.33;54.94;101489.63;4980984;28;20042;-79
2022/04/19 09:23:29;;;;;;;5.28;2.20;;;;;;;17.95;59.05;101497.72;4970009;28;20042;-78
2022/04/19 09:26:13;;;;;;;4.38;1.45;;;;;;;16.66;61.59;101495.63;4981171;28;20049;-78
2022/04/19 09:28:41;;;;;;;5.60;1.30;;;;;;;15.46;64.98;101500.91;4958601;28;20052;-78
2022/04/19 09:31:11;;;;;;;2.05;1.23;;;;;;;15.00;63.06;101501.94;4983888;28;20041;-78
2022/04/19 09:33:36;;;;;;;4.28;1.60;;;;;;;17.36;60.33;101492.94;4969586;28;20045;-78
2022/04/19 09:36:03;;;;;;;3.55;1.67;;;;;;;17.94;56.29;101501.50;4958735;28;20030;-79
2022/04/19 09:38:36;;;;;;;3.80;1.50;;;;;;;19.08;48.00;101508.59;4960830;28;20029;-76
2022/04/19 09:41:05;;;;;;;3.58;1.55;;;;;;;18.80;49.12;101505.31;4975538;28;20041;-78
2022/04/19 09:43:32;;;;;;;2.85;1.15;;;;;;;18.61;52.92;101506.97;4963986;28;20038;-79
2022/04/19 09:46:05;;;;;;;2.75;1.27;;;;;;;18.52;47.79;101500.06;4989053;28;20052;-78
2022/04/19 09:48:32;;;;;;;4.97;1.70;;;;;;;19.25;47.04;101498.06;4998899;28;20176;-79
2022/04/19 09:50:59;;;;;;;3.38;1.30;;;;;;;18.08;50.69;101493.34;4975182;28;20038;-79
2022/04/19 09:53:50;;;;;;;5.28;1.80;;;;;;;16.63;52.50;101489.75;5007355;28;20038;-79
2022/04/19 09:56:17;;;;;;;3.00;1.00;;;;;;;15.10;58.33;101475.44;4957856;28;20503;-76
2022/04/19 09:58:45;;;;;;;3.90;1.08;;;;;;;14.21;61.68;101496.97;4986410;28;20041;-79
2022/04/19 10:08:10;;;;;;;2.75;1.00;;;;;;;13.91;64.73;101511.38;5009940;28;20392;-77
2022/04/19 10:09:41;;;;;;;3.67;1.10;;;;;;;13.07;66.46;101476.84;4983420;28;20061;-78
2022/04/19 10:12:10;;;;;;;4.43;2.28;;;;;;;17.62;54.57;101515.78;4987060;28;20519;-78
2022/04/19 10:14:36;;;;;;;4.50;1.40;;;;;;;20.91;45.09;101501.56;4974001;28;20038;-80
2022/04/19 10:17:05;;;;;;;3.47;1.23;;;;;;;22.28;40.40;101514.78;4972840;28;20033;-79
2022/04/19 10:19:31;;;;;;;3.13;1.30;;;;;;;23.53;37.10;101509.09;4970595;28;20124;-81
2022/04/19 10:22:11;;;;;;;2.83;1.15;;;;;;;20.82;39.91;101509.22;4954867;28;20416;-82
2022/04/19 10:24:52;;;;;;;4.43;1.10;;;;;;;17.61;49.08;101498.66;4972424;28;20395;-83
2022/04/19 10:27:33;;;;;;;2.88;1.10;;;;;;;14.53;64.97;101519.38;4993711;28;20029;-85
2022/04/19 10:30:00;;;;;;;2.20;0.90;;;;;;;12.28;79.64;101519.81;4993565;28;20042;-82
2022/04/19 10:32:35;;;;;;;1.75;0.80;;;;;;;10.99;90.56;101520.09;4968977;28;20045;-85
2022/04/19 10:35:03;;;;;;;0.50;0.50;;;;;;;10.49;93.98;101519.94;4981586;28;20056;-86
2022/04/19 10:37:29;;;;;;;0.43;0.43;;;;;;;10.57;96.52;101517.31;4985926;28;20076;-83
2022/04/19 10:39:58;;;;;;;1.02;1.02;;;;;;;11.64;95.45;101513.28;4966739;28;20061;-84
2022/04/19 10:42:34;;;;;;;0.70;0.70;;;;;;;15.36;81.41;101517.44;5006683;28;20493;-84
2022/04/19 10:45:13;;;;;;;0.82;0.82;;;;;;;17.90;72.30;101511.09;4992933;28;20034;-84
2022/04/19 10:47:51;;;;;;;0.70;0.70;;;;;;;18.85;66.53;101509.06;5020066;28;20034;-86
2022/04/19 10:50:30;;;;;;;0.80;0.80;;;;;;;17.83;66.80;101504.81;4992392;28;20049;-84
2022/04/19 10:53:00;;;;;;;0.80;0.80;;;;;;;19.85;64.05;101475.13;4985948;28;20072;-83
2022/04/19 10:55:27;;;;;;;0.70;0.70;;;;;;;19.50;64.27;101509.09;4979274;28;20083;-84
2022/04/19 10:58:06;;;;;;;0.60;0.60;;;;;;;17.78;70.48;101507.25;4963240;28;20514;-88
2022/04/19 11:00:34;;;;;;;1.02;0.90;;;;;;;17.27;72.59;101510.44;5008334;28;20034;-85
2022/04/19 11:03:01;;;;;;;1.00;1.00;;;;;;;19.21;63.53;101505.00;4999407;28;20046;-85
2022/04/19 11:05:55;;;;;;;0.90;0.90;;;;;;;21.92;56.58;101521.19;4997108;28;20029;-85
2022/04/19 11:08:26;;;;;;;0.73;0.73;;;;;;;21.00;60.26;101516.59;4964505;28;20038;-84
2022/04/19 11:10:52;;;;;;;0.50;0.50;;;;;;;17.93;66.42;101524.28;4996609;28;20642;-83
2022/04/19 11:13:19;;;;;;;0.82;0.57;;;;;;;14.90;75.47;101514.97;5002248;28;20070;-87
2022/04/19 11:16:01;;;;;;;0.50;0.50;;;;;;;12.77;85.46;101525.16;5014353;28;20034;-86
2022/04/19 11:18:31;;;;;;;1.48;0.50;;;;;;;11.75;93.51;101528.28;4967255;28;20042;-84
2022/04/19 11:20:58;;;;;;;0.50;0.50;;;;;;;11.13;95.47;101531.28;4978867;28;20095;-87
2022/04/19 11:23:27;;;;;;;0.98;0.73;;;;;;;10.71;97.53;101518.56;5006432;28;20042;-83
2022/04/19 11:25:54;;;;;;;1.20;0.63;;;;;;;10.79;99.05;101532.06;4973590;28;20087;-84
2022/04/19 11:28:50;;;;;;;2.67;1.30;;;;;;;15.01;81.94;101525.31;4999070;28;20022;-81
2022/04/19 11:31:16;;;;;;;1.92;1.30;;;;;;;19.18;67.24;101524.50;4988353;28;20037;-81
2022/04/19 11:33:42;;;;;;;2.03;1.55;;;;;;;20.75;59.20;101472.94;4981163;28;20041;-82
2022/04/19 11:36:22;;;;;;;1.25;1.15;;;;;;;22.21;56.90;101515.94;5003912;28;20058;-83
2022/04/19 11:38:49;;;;;;;2.05;1.20;;;;;;;23.38;55.84;101507.69;4995504;28;20029;-81
2022/04/19 11:46:46;;;;;;;1.30;1.05;;;;;;;17.44;68.51;101513.63;5012563;28;20037;-85
2022/04/19 11:49:30;;;;;;;5.85;1.38;;;;;;;14.20;81.13;101533.13;4997225;28;20040;-85
2022/04/19 11:51:57;;;;;;;0.93;0.75;;;;;;;12.51;88.57;101524.53;4980383;28;20085;-81
2022/04/19 11:54:31;;;;;;;0.73;0.50;;;;;;;11.29;92.18;101522.44;4986306;28;20054;-80
2022/04/19 11:57:01;;;;;;;0.40;0.40;;;;;;;10.63;97.07;101523.91;4995677;28;20065;-79
2022/04/19 11:59:29;;;;;;;1.48;0.50;;;;;;;10.34;99.07;101515.13;4986860;28;20045;-79
2022/04/19 12:01:55;;;;;;;0.40;0.40;;;;;;;10.41;99.93;101527.94;4977286;28;20490;-79